Terminal Aerodrome Forecast
Issued by NWS Jackson, MS

Home | Current Version | Previous Version | Text Only | Print | Product List | Glossary On
Versions: 1 2 3 4 5 6 7 8 9 10 11 12 13 14 15 16 17 18 19 20 21 22 23 24 25 26
000
FTUS44 KJAN 080647 AAB
TAFJAN
TAF AMD
KJAN 080647Z 0807/0906 18005KT P6SM SCT025
     FM081000 17003KT P6SM BKN010
     FM081330 18005KT P6SM SCT025
     FM081500 19010KT P6SM SCT045=

USA.gov is the U.S. government's official web portal to all federal, state and local government web resources and services.